Nuiqsut, Alaska
Current Conditions -  °F | °C
As of 5:53 PM on Monday 26 Jan 2015 (Local Time) from PAQT Reporting Station
Haze Haze  
Wind Chill: -57°   Ceiling: Unl
Heat Index: -29°   Visibility: 3mi
Dew Point: -35°   Wind: 16mph
Humidity: 73%   Direction: 260°W
Pressure: 30.21"   Gusts: NA
Location:  70.22°N, 150.98°W
Report Text: PAQT 270253Z AUTO 26014KT 3SM HZ CLR M34/M37 A3021 RMK AO2 SLP232 T13391372 53008 TSNO
Loading
Personal Weather Stations






























Interactive Weather Map New forecast layout! Learn more

10-Day Weather Forecast

Advertisements
Track Severe Weather on mobile